Time;durP1;ratioP1;P1;durP2;ratioP2;P2;SDS_P1;SDS_P2;PMS_P1;PMS_P2;Temp;Humidity;BMP_temperature;BMP_pressure;BME280_temperature;BME280_humidity;BME280_pressure;Samples;Min_cycle;Max_cycle;Signal;HPM_P1;HPM_P2
2020/12/22 00:02:16;;;;;;;10.07;8.70;;;20.40;58.10;;;;;;6276729;22;19996;-74
2020/12/22 00:04:43;;;;;;;11.15;8.73;;;20.40;58.20;;;;;;6276558;22;20022;-74
2020/12/22 00:07:10;;;;;;;12.13;8.88;;;20.30;58.00;;;;;;6275693;22;19999;-73
2020/12/22 00:09:37;;;;;;;11.40;8.18;;;20.10;58.10;;;;;;6277507;22;20000;-74
2020/12/22 00:12:16;;;;;;;17.08;9.48;;;20.00;58.80;;;;;;6277716;22;20011;-74
2020/12/22 00:14:43;;;;;;;14.02;8.43;;;19.60;59.40;;;;;;6273891;22;20010;-74
2020/12/22 00:17:10;;;;;;;11.75;8.88;;;19.20;60.30;;;;;;6247413;22;20006;-74
2020/12/22 00:19:37;;;;;;;11.23;9.48;;;18.60;60.60;;;;;;6278725;22;20003;-74
2020/12/22 00:22:04;;;;;;;11.77;8.82;;;17.90;61.20;;;;;;6277861;22;20412;-74
2020/12/22 00:24:31;;;;;;;17.38;8.82;;;17.40;61.80;;;;;;6276268;22;20653;-75
2020/12/22 00:26:58;;;;;;;10.68;8.35;;;16.70;61.90;;;;;;6276574;22;20410;-74
2020/12/22 00:29:25;;;;;;;10.70;7.50;;;16.30;64.60;;;;;;6275797;22;20431;-73
2020/12/22 00:31:55;;;;;;;11.20;6.78;;;16.00;65.70;;;;;;6275539;22;20295;-73
2020/12/22 00:34:22;;;;;;;10.20;7.60;;;15.70;66.60;;;;;;6274962;22;20417;-74
2020/12/22 00:36:49;;;;;;;9.93;7.88;;;15.40;67.70;;;;;;6279020;22;20003;-75
2020/12/22 00:39:17;;;;;;;8.60;7.25;;;15.20;69.00;;;;;;6277269;22;20014;-73
2020/12/22 00:41:44;;;;;;;15.45;10.68;;;14.90;70.40;;;;;;6274972;22;19997;-73
2020/12/22 00:44:12;;;;;;;15.63;10.38;;;14.60;75.40;;;;;;6274978;22;20443;-74
2020/12/22 00:46:39;;;;;;;14.75;10.52;;;14.30;77.40;;;;;;6274791;22;20007;-75
2020/12/22 00:49:06;;;;;;;14.20;10.38;;;14.10;80.70;;;;;;6276650;22;19999;-73
2020/12/22 00:51:32;;;;;;;18.30;11.20;;;14.00;81.70;;;;;;6276631;22;20002;-74
2020/12/22 00:53:59;;;;;;;17.95;11.75;;;13.90;83.90;;;;;;6274567;22;19996;-74
2020/12/22 00:56:26;;;;;;;21.23;13.30;;;13.50;87.50;;;;;;6275985;22;20003;-74
2020/12/22 00:58:53;;;;;;;18.75;12.25;;;13.00;90.80;;;;;;6276370;22;20023;-74
2020/12/22 01:01:20;;;;;;;22.23;15.15;;;12.60;91.90;;;;;;6280068;22;20258;-74
2020/12/22 01:03:47;;;;;;;20.58;15.02;;;12.40;93.40;;;;;;6279550;22;20000;-75
2020/12/22 01:06:15;;;;;;;22.50;13.88;;;12.00;93.70;;;;;;6276896;22;19996;-74
2020/12/22 01:08:43;;;;;;;20.40;13.27;;;11.90;94.00;;;;;;6273505;22;19996;-75
2020/12/22 01:11:10;;;;;;;25.13;14.73;;;11.80;94.50;;;;;;6272729;22;20007;-76
2020/12/22 01:13:37;;;;;;;23.70;13.57;;;11.60;94.80;;;;;;6278434;22;19991;-75
2020/12/22 01:16:04;;;;;;;19.35;12.32;;;11.50;95.60;;;;;;6276929;22;20317;-76
2020/12/22 01:18:31;;;;;;;22.60;14.15;;;11.30;95.40;;;;;;6276721;22;20004;-76
2020/12/22 01:20:58;;;;;;;22.67;14.23;;;11.20;96.60;;;;;;6276039;22;20011;-75
2020/12/22 01:23:25;;;;;;;20.90;13.75;;;11.10;97.20;;;;;;6246456;22;20000;-75
2020/12/22 01:25:52;;;;;;;19.75;13.10;;;11.00;97.60;;;;;;6274864;22;20313;-75
2020/12/22 01:28:18;;;;;;;22.08;13.98;;;11.00;97.60;;;;;;6272939;22;20022;-76
2020/12/22 01:30:45;;;;;;;18.75;13.48;;;10.90;98.30;;;;;;6276531;22;20436;-75
2020/12/22 01:33:12;;;;;;;24.92;16.00;;;10.90;98.60;;;;;;6276612;22;20015;-76
2020/12/22 01:35:39;;;;;;;25.88;15.73;;;10.80;99.40;;;;;;6280552;22;19996;-76
2020/12/22 01:38:06;;;;;;;25.33;15.65;;;10.80;99.40;;;;;;6282183;22;20015;-76
2020/12/22 01:40:33;;;;;;;31.63;17.27;;;10.70;99.90;;;;;;6276025;22;20414;-75
2020/12/22 01:43:00;;;;;;;28.60;14.63;;;10.60;99.90;;;;;;6274567;22;20003;-76
2020/12/22 01:45:27;;;;;;;23.50;12.55;;;10.70;99.40;;;;;;6277855;22;19992;-75
2020/12/22 01:47:54;;;;;;;12.45;8.75;;;10.70;98.00;;;;;;6275849;22;19996;-74
2020/12/22 01:50:21;;;;;;;13.32;9.57;;;10.80;96.80;;;;;;6277209;22;19996;-75
2020/12/22 01:52:49;;;;;;;13.25;9.35;;;10.80;96.60;;;;;;6277837;22;20030;-75
2020/12/22 01:55:16;;;;;;;11.35;8.77;;;10.80;96.30;;;;;;6277054;22;19992;-78
2020/12/22 01:57:44;;;;;;;12.05;8.35;;;10.90;96.40;;;;;;6277826;22;20099;-73
2020/12/22 02:00:10;;;;;;;9.98;6.70;;;10.90;96.20;;;;;;6285400;22;20428;-74
2020/12/22 02:02:40;;;;;;;9.45;7.07;;;11.00;96.40;;;;;;6282417;22;19996;-75
2020/12/22 02:05:07;;;;;;;8.65;5.78;;;10.90;96.40;;;;;;6277810;22;20409;-75
2020/12/22 02:07:36;;;;;;;7.93;6.45;;;11.00;96.70;;;;;;6249218;22;20010;-76
2020/12/22 02:10:04;;;;;;;9.02;6.50;;;10.90;96.50;;;;;;6278436;22;20003;-75
2020/12/22 02:12:30;;;;;;;8.23;6.10;;;10.90;96.70;;;;;;6279078;22;20019;-75
2020/12/22 02:14:57;;;;;;;7.82;5.75;;;10.90;97.50;;;;;;6251182;22;20003;-75
2020/12/22 02:17:24;;;;;;;7.32;5.97;;;10.90;97.20;;;;;;6278573;22;20003;-73
2020/12/22 02:19:51;;;;;;;8.20;4.78;;;10.80;97.80;;;;;;6279391;22;20015;-73
2020/12/22 02:22:18;;;;;;;8.23;5.25;;;10.80;97.70;;;;;;6283348;22;20429;-72
2020/12/22 02:24:45;;;;;;;9.23;5.28;;;10.70;97.80;;;;;;6281983;22;20000;-72
2020/12/22 02:27:14;;;;;;;9.23;5.50;;;10.60;98.20;;;;;;6276429;22;20531;-72
2020/12/22 02:29:41;;;;;;;6.60;4.85;;;10.60;98.80;;;;;;6275726;22;19999;-73
2020/12/22 02:32:07;;;;;;;13.95;8.35;;;10.60;98.50;;;;;;6277812;22;20000;-71
2020/12/22 02:34:34;;;;;;;10.02;5.60;;;10.60;98.40;;;;;;6276999;22;19992;-71
2020/12/22 02:37:01;;;;;;;6.10;4.80;;;10.50;98.80;;;;;;6277207;22;19996;-73
2020/12/22 02:39:28;;;;;;;6.25;4.97;;;10.40;99.10;;;;;;6275697;22;20020;-72
2020/12/22 02:41:55;;;;;;;9.40;5.95;;;10.30;99.50;;;;;;6275886;22;19995;-73
2020/12/22 02:44:22;;;;;;;9.55;7.28;;;10.30;99.50;;;;;;6276342;22;20007;-74
2020/12/22 02:46:49;;;;;;;14.80;7.32;;;10.20;99.70;;;;;;6278532;22;20309;-73
2020/12/22 02:49:16;;;;;;;10.00;6.43;;;10.20;99.90;;;;;;6275519;22;19996;-74
2020/12/22 02:51:42;;;;;;;12.45;7.75;;;10.10;99.40;;;;;;6276927;22;19999;-73
2020/12/22 02:54:09;;;;;;;9.85;7.20;;;10.10;99.90;;;;;;6275786;22;19992;-74
2020/12/22 02:56:36;;;;;;;13.52;8.52;;;10.00;99.30;;;;;;6276082;22;20015;-73
2020/12/22 02:59:03;;;;;;;12.90;8.27;;;10.00;99.90;;;;;;6278111;22;20008;-73
2020/12/22 03:01:30;;;;;;;14.73;9.57;;;9.90;99.90;;;;;;6277620;22;20696;-73
2020/12/22 03:04:00;;;;;;;11.50;9.07;;;9.80;99.90;;;;;;6248716;22;20333;-73
2020/12/22 03:06:27;;;;;;;13.70;8.98;;;9.70;99.90;;;;;;6278404;22;20000;-73
2020/12/22 03:08:54;;;;;;;12.88;8.68;;;9.60;99.90;;;;;;6275078;22;20007;-75
2020/12/22 03:11:21;;;;;;;11.00;7.00;;;9.60;99.90;;;;;;6276825;22;19996;-75
2020/12/22 03:13:48;;;;;;;9.15;6.25;;;9.60;99.90;;;;;;6276258;22;20000;-75
2020/12/22 03:16:18;;;;;;;7.10;4.70;;;9.50;99.90;;;;;;6275716;22;20003;-75
2020/12/22 03:18:45;;;;;;;4.95;3.50;;;9.60;99.90;;;;;;6277888;22;20011;-76
2020/12/22 03:21:15;;;;;;;2.45;1.17;;;9.50;99.90;;;;;;6277629;22;20012;-73
2020/12/22 03:23:42;;;;;;;2.95;1.23;;;9.60;99.90;;;;;;6274728;22;20007;-74
2020/12/22 03:26:10;;;;;;;3.03;1.58;;;9.70;99.90;;;;;;6275931;22;20444;-75
2020/12/22 03:28:37;;;;;;;4.05;1.70;;;9.70;99.90;;;;;;6248226;22;20007;-74
2020/12/22 03:31:03;;;;;;;4.70;1.73;;;9.70;99.90;;;;;;6277645;22;20003;-74
2020/12/22 03:33:30;;;;;;;4.78;1.80;;;9.70;99.90;;;;;;6277777;22;20007;-74
2020/12/22 03:35:57;;;;;;;2.22;1.42;;;9.70;99.90;;;;;;6277246;22;19996;-74
2020/12/22 03:38:24;;;;;;;3.47;1.60;;;9.70;99.90;;;;;;6277279;22;20051;-74
2020/12/22 03:40:51;;;;;;;2.33;1.70;;;9.70;99.90;;;;;;6276486;22;19999;-75
2020/12/22 03:43:18;;;;;;;4.65;1.52;;;9.70;99.90;;;;;;6250044;22;20011;-77
2020/12/22 03:45:49;;;;;;;4.05;1.63;;;9.70;99.90;;;;;;6280853;22;20031;-75
2020/12/22 03:48:16;;;;;;;4.28;2.17;;;9.70;99.90;;;;;;6277607;22;19996;-74
2020/12/22 03:50:43;;;;;;;4.90;1.85;;;9.70;99.90;;;;;;6276587;22;19995;-74
2020/12/22 03:53:10;;;;;;;2.67;1.50;;;9.70;99.90;;;;;;6274576;22;20452;-74
2020/12/22 03:55:38;;;;;;;6.85;2.30;;;9.70;99.90;;;;;;6274270;22;20003;-73
2020/12/22 03:58:05;;;;;;;4.25;2.03;;;9.60;99.90;;;;;;6273667;22;20468;-74
2020/12/22 04:00:32;;;;;;;3.38;1.88;;;9.60;99.90;;;;;;6276646;22;20316;-74
2020/12/22 04:02:58;;;;;;;3.78;1.58;;;9.70;99.90;;;;;;6276384;22;20333;-74
2020/12/22 04:05:25;;;;;;;3.78;1.73;;;9.60;99.90;;;;;;6276116;22;20003;-73
2020/12/22 04:07:52;;;;;;;3.08;1.35;;;9.60;99.90;;;;;;6278821;22;20350;-74
2020/12/22 04:10:19;;;;;;;1.92;1.27;;;9.60;99.90;;;;;;6279789;22;20006;-74
2020/12/22 04:12:46;;;;;;;3.83;1.20;;;9.60;99.90;;;;;;6276091;22;19996;-73
2020/12/22 04:15:13;;;;;;;3.03;1.83;;;9.60;99.90;;;;;;6278018;22;19992;-73
2020/12/22 04:17:44;;;;;;;2.17;1.30;;;9.70;99.90;;;;;;6277088;22;19995;-74
2020/12/22 04:20:11;;;;;;;1.90;0.90;;;9.60;99.90;;;;;;6275658;22;20011;-74
2020/12/22 04:22:38;;;;;;;5.80;1.20;;;9.60;99.90;;;;;;6274325;22;19992;-73
2020/12/22 04:25:06;;;;;;;7.00;1.40;;;9.60;99.90;;;;;;6277269;22;20416;-79
2020/12/22 04:27:33;;;;;;;2.78;0.88;;;9.60;99.90;;;;;;6247524;22;20054;-73
2020/12/22 04:30:00;;;;;;;16.15;2.53;;;9.50;99.90;;;;;;6276579;22;20047;-73
2020/12/22 04:32:27;;;;;;;2.28;1.13;;;9.50;99.90;;;;;;6277718;22;20006;-73
2020/12/22 04:34:55;;;;;;;4.50;1.20;;;9.40;99.90;;;;;;6280170;22;20010;-74
2020/12/22 04:37:22;;;;;;;3.83;1.17;;;9.50;99.90;;;;;;6274415;22;20007;-74
2020/12/22 04:39:49;;;;;;;9.95;1.50;;;9.40;99.90;;;;;;6273806;22;20018;-74
2020/12/22 04:42:19;;;;;;;4.97;1.15;;;9.40;99.90;;;;;;6274101;22;20000;-74
2020/12/22 04:44:47;;;;;;;4.80;1.33;;;9.40;99.90;;;;;;6276132;22;19996;-75
2020/12/22 04:47:17;;;;;;;2.97;1.33;;;9.30;99.90;;;;;;6275163;22;19999;-73
2020/12/22 04:49:48;;;;;;;4.70;1.42;;;9.30;99.90;;;;;;6274165;22;20003;-73
2020/12/22 04:52:16;;;;;;;3.05;1.20;;;9.30;99.90;;;;;;6279069;22;20425;-74
2020/12/22 04:54:43;;;;;;;4.97;1.45;;;9.30;99.90;;;;;;6277955;22;20003;-73
2020/12/22 04:57:15;;;;;;;4.45;1.20;;;9.30;99.90;;;;;;6275510;22;20006;-73
2020/12/22 04:59:45;;;;;;;6.32;1.40;;;9.30;99.90;;;;;;6274497;22;20018;-74
2020/12/22 05:02:15;;;;;;;3.85;1.20;;;9.30;99.90;;;;;;6276906;22;19995;-73
2020/12/22 05:04:42;;;;;;;3.50;1.02;;;9.30;99.90;;;;;;6275520;22;19996;-73
2020/12/22 05:07:09;;;;;;;2.83;1.35;;;9.30;99.90;;;;;;6248108;22;20007;-72
2020/12/22 05:09:36;;;;;;;4.03;1.45;;;9.30;99.90;;;;;;6273956;22;20000;-73
2020/12/22 05:12:03;;;;;;;12.70;1.90;;;9.30;99.90;;;;;;6280573;22;20444;-73
2020/12/22 05:14:30;;;;;;;4.00;1.88;;;9.30;99.90;;;;;;6282922;22;20022;-76
2020/12/22 05:16:58;;;;;;;6.25;1.67;;;9.20;99.90;;;;;;6276754;22;20003;-76
2020/12/22 05:19:34;;;;;;;2.80;1.40;;;9.20;99.90;;;;;;6276210;22;20022;-73
2020/12/22 05:22:03;;;;;;;3.80;1.30;;;9.10;99.90;;;;;;6274743;22;20012;-73
2020/12/22 05:24:32;;;;;;;6.75;1.80;;;9.10;99.90;;;;;;6274595;22;20004;-73
2020/12/22 05:27:00;;;;;;;4.15;1.70;;;9.10;99.90;;;;;;6250872;22;20013;-72
2020/12/22 05:29:28;;;;;;;4.57;1.85;;;9.10;99.90;;;;;;6276187;22;20000;-74
2020/12/22 05:31:55;;;;;;;3.13;1.42;;;9.00;99.90;;;;;;6279405;22;20417;-74
2020/12/22 05:34:27;;;;;;;2.78;1.40;;;9.10;99.90;;;;;;6275567;22;20331;-75
2020/12/22 05:37:01;;;;;;;3.75;1.42;;;9.10;99.90;;;;;;6274969;22;19996;-73
2020/12/22 05:39:28;;;;;;;4.75;1.40;;;9.10;99.90;;;;;;6277382;22;20011;-75
2020/12/22 05:41:55;;;;;;;3.22;1.40;;;9.10;99.90;;;;;;6276435;22;19992;-73
2020/12/22 05:44:26;;;;;;;2.67;1.38;;;9.10;99.90;;;;;;6275640;22;20432;-72
2020/12/22 05:46:53;;;;;;;4.68;1.67;;;9.10;99.90;;;;;;6273816;22;19996;-74
2020/12/22 05:49:22;;;;;;;6.10;1.55;;;9.10;99.90;;;;;;6279097;22;20007;-75
2020/12/22 05:51:52;;;;;;;2.40;1.40;;;9.00;99.90;;;;;;6277265;22;19992;-75
2020/12/22 05:54:19;;;;;;;9.48;1.98;;;9.10;99.90;;;;;;6275233;22;19996;-74
2020/12/22 05:56:46;;;;;;;5.70;1.23;;;9.00;99.90;;;;;;6246877;22;19999;-74
2020/12/22 05:59:22;;;;;;;3.47;1.65;;;9.00;99.90;;;;;;6276263;22;20003;-74
2020/12/22 06:01:49;;;;;;;5.93;1.83;;;9.00;99.90;;;;;;6275592;22;20440;-74
2020/12/22 06:04:18;;;;;;;3.83;1.80;;;8.90;99.90;;;;;;6272663;22;20004;-74
2020/12/22 06:06:47;;;;;;;7.88;3.20;;;8.90;99.90;;;;;;6273219;22;20000;-74
2020/12/22 06:09:14;;;;;;;5.60;2.85;;;8.80;99.90;;;;;;6275646;22;20014;-72
2020/12/22 06:11:41;;;;;;;6.28;3.33;;;8.90;99.90;;;;;;6273166;22;20000;-73
2020/12/22 06:14:08;;;;;;;13.38;3.58;;;8.90;99.90;;;;;;6274926;22;20349;-72
2020/12/22 06:16:35;;;;;;;5.05;3.30;;;8.90;99.90;;;;;;6274845;22;19999;-72
2020/12/22 06:19:02;;;;;;;9.23;4.40;;;8.90;99.90;;;;;;6274141;22;19996;-72
2020/12/22 06:21:29;;;;;;;5.45;3.28;;;8.90;99.90;;;;;;6273043;22;20020;-74
2020/12/22 06:23:56;;;;;;;9.63;3.72;;;8.80;99.90;;;;;;6275737;22;19991;-74
2020/12/22 06:26:23;;;;;;;8.43;4.13;;;8.80;99.90;;;;;;6272576;22;20006;-74
2020/12/22 06:28:50;;;;;;;9.30;4.15;;;8.80;99.90;;;;;;6274601;22;20323;-74
2020/12/22 06:31:18;;;;;;;6.75;4.32;;;8.80;99.90;;;;;;6272593;22;20004;-73
2020/12/22 06:33:45;;;;;;;7.43;4.57;;;8.80;99.90;;;;;;6276099;22;20385;-73
2020/12/22 06:36:14;;;;;;;11.68;4.93;;;8.70;99.90;;;;;;6276602;22;19995;-73
2020/12/22 06:38:54;;;;;;;7.93;4.90;;;8.80;99.90;;;;;;6274901;22;20436;-73
2020/12/22 06:41:33;;;;;;;10.00;4.65;;;8.80;99.90;;;;;;6278227;22;19992;-73
2020/12/22 06:44:18;;;;;;;12.65;5.53;;;8.80;99.90;;;;;;6276808;22;20335;-72
2020/12/22 06:46:46;;;;;;;9.80;5.18;;;8.80;99.90;;;;;;6277545;22;19995;-72
2020/12/22 06:49:17;;;;;;;7.65;4.03;;;8.80;99.90;;;;;;6277456;22;20322;-72
2020/12/22 06:51:44;;;;;;;6.13;4.47;;;8.90;99.90;;;;;;6274741;22;20590;-71
2020/12/22 06:54:13;;;;;;;8.65;5.15;;;8.90;99.90;;;;;;6279690;22;20036;-71
2020/12/22 06:56:50;;;;;;;6.45;4.68;;;8.90;99.90;;;;;;6283725;22;19998;-73
2020/12/22 06:59:42;;;;;;;12.43;4.60;;;8.90;99.90;;;;;;6276954;22;20451;-73
2020/12/22 07:02:29;;;;;;;8.32;4.72;;;9.00;99.90;;;;;;6278292;22;20455;-70
2020/12/22 07:04:57;;;;;;;6.28;4.00;;;9.00;99.90;;;;;;6275920;22;20018;-71
2020/12/22 07:07:24;;;;;;;12.32;4.95;;;9.00;99.90;;;;;;6276243;22;20003;-71
2020/12/22 07:10:05;;;;;;;6.88;3.83;;;9.00;99.90;;;;;;6275670;22;20000;-71
2020/12/22 07:12:32;;;;;;;8.00;4.43;;;9.00;99.90;;;;;;6275085;22;20016;-73
2020/12/22 07:14:59;;;;;;;7.53;3.60;;;9.00;99.90;;;;;;6276196;22;19996;-72
2020/12/22 07:17:29;;;;;;;8.55;3.47;;;9.00;99.90;;;;;;6278372;22;20327;-72
2020/12/22 07:19:56;;;;;;;5.97;3.42;;;9.00;99.90;;;;;;6275014;22;20019;-71
2020/12/22 07:22:23;;;;;;;5.20;3.08;;;9.00;99.90;;;;;;6277549;22;20003;-72
2020/12/22 07:24:50;;;;;;;7.38;3.53;;;9.10;99.90;;;;;;6277187;22;20018;-73
2020/12/22 07:27:17;;;;;;;8.70;3.35;;;9.10;99.90;;;;;;6277708;22;20003;-72
2020/12/22 07:29:44;;;;;;;8.23;3.28;;;9.10;99.90;;;;;;6276784;22;20006;-72
2020/12/22 07:32:12;;;;;;;6.72;2.95;;;9.10;99.90;;;;;;6274571;22;20007;-71
2020/12/22 07:34:42;;;;;;;5.72;2.90;;;9.10;99.90;;;;;;6274761;22;20025;-73
2020/12/22 07:37:13;;;;;;;7.40;3.15;;;9.00;99.90;;;;;;6276463;22;19992;-73
2020/12/22 07:39:40;;;;;;;7.90;3.03;;;9.00;99.90;;;;;;6277927;22;20455;-73
2020/12/22 07:42:16;;;;;;;6.65;2.90;;;8.90;99.90;;;;;;6274993;22;20007;-72
2020/12/22 07:44:45;;;;;;;8.65;3.17;;;8.90;99.90;;;;;;6275747;22;20321;-73
2020/12/22 07:47:16;;;;;;;8.30;3.28;;;8.80;99.90;;;;;;6274978;22;20447;-72
2020/12/22 07:49:43;;;;;;;10.17;3.40;;;8.80;99.90;;;;;;6277240;22;20515;-72
2020/12/22 07:52:16;;;;;;;7.07;2.53;;;8.70;99.90;;;;;;6274720;22;20000;-73
2020/12/22 07:54:57;;;;;;;11.27;3.10;;;8.70;99.90;;;;;;6274568;22;20433;-71
2020/12/22 07:57:26;;;;;;;8.05;2.80;;;8.70;99.90;;;;;;6278233;22;19992;-72
2020/12/22 08:00:03;;;;;;;8.90;3.63;;;8.80;99.90;;;;;;6276055;22;20433;-72
2020/12/22 08:02:29;;;;;;;6.50;2.70;;;8.80;99.90;;;;;;6276826;22;19996;-72
2020/12/22 08:04:56;;;;;;;6.25;3.22;;;8.70;99.90;;;;;;6276813;22;19996;-71
2020/12/22 08:07:23;;;;;;;10.75;3.78;;;8.70;99.90;;;;;;6276090;22;20002;-72
2020/12/22 08:09:50;;;;;;;8.90;3.38;;;8.70;99.90;;;;;;6273337;22;20007;-73
2020/12/22 08:12:17;;;;;;;4.70;2.13;;;8.70;99.90;;;;;;6275332;22;20353;-72
2020/12/22 08:14:45;;;;;;;8.68;2.55;;;8.70;99.90;;;;;;6277885;22;20006;-72
2020/12/22 08:17:18;;;;;;;12.55;4.45;;;8.70;99.90;;;;;;6277523;22;19991;-72
2020/12/22 08:19:47;;;;;;;7.97;2.72;;;8.70;99.90;;;;;;6248706;22;20487;-72
2020/12/22 08:22:16;;;;;;;12.00;3.63;;;8.60;99.90;;;;;;6216481;23;20039;-74
2020/12/22 08:24:44;;;;;;;15.48;7.00;;;8.60;99.90;;;;;;6252507;22;20044;-72
2020/12/22 08:27:11;;;;;;;18.80;8.40;;;8.50;99.90;;;;;;6247349;23;19992;-73
2020/12/22 08:29:42;;;;;;;18.50;8.18;;;8.50;99.90;;;;;;6246894;23;20000;-73
2020/12/22 08:32:08;;;;;;;16.00;7.18;;;8.50;99.90;;;;;;6246047;22;20000;-73
2020/12/22 08:34:35;;;;;;;16.02;7.28;;;8.50;99.90;;;;;;6244174;22;20356;-73
2020/12/22 08:37:11;;;;;;;16.80;7.50;;;8.50;99.90;;;;;;6245550;23;20409;-74
2020/12/22 08:39:43;;;;;;;14.07;8.10;;;8.50;99.90;;;;;;6247506;23;20004;-74
2020/12/22 08:42:11;;;;;;;12.00;7.18;;;8.50;99.90;;;;;;6245361;23;20000;-74
2020/12/22 08:44:47;;;;;;;21.02;7.65;;;8.50;99.90;;;;;;6244332;23;20000;-73
2020/12/22 08:47:14;;;;;;;13.57;6.55;;;8.40;99.90;;;;;;6245190;23;20318;-74
2020/12/22 08:49:42;;;;;;;17.17;7.25;;;8.40;99.90;;;;;;6244670;23;20362;-73
2020/12/22 08:52:14;;;;;;;17.50;7.50;;;8.50;99.90;;;;;;6244885;23;19996;-73
2020/12/22 08:54:45;;;;;;;12.77;6.88;;;8.50;99.90;;;;;;6243922;22;20003;-73
2020/12/22 08:57:21;;;;;;;14.17;6.30;;;8.50;99.90;;;;;;6245308;23;19996;-73
2020/12/22 08:59:48;;;;;;;16.27;5.45;;;8.60;99.90;;;;;;6241951;23;20019;-73
2020/12/22 09:02:31;;;;;;;15.85;6.57;;;8.60;99.90;;;;;;6247868;23;19996;-73
2020/12/22 09:05:09;;;;;;;11.60;5.53;;;8.60;99.90;;;;;;6245029;23;19996;-72
2020/12/22 09:07:36;;;;;;;11.52;5.47;;;8.70;99.90;;;;;;6246150;23;20286;-72
2020/12/22 09:10:07;;;;;;;18.27;5.55;;;8.70;99.90;;;;;;6245669;23;20007;-72
2020/12/22 09:12:40;;;;;;;11.15;4.85;;;8.70;99.90;;;;;;6244012;22;20429;-73
2020/12/22 09:15:08;;;;;;;8.30;4.22;;;8.80;99.90;;;;;;6244197;23;20448;-72
2020/12/22 09:17:38;;;;;;;10.55;4.88;;;8.80;99.90;;;;;;6243517;22;20000;-73
2020/12/22 09:20:06;;;;;;;7.50;4.13;;;8.90;99.90;;;;;;6245112;22;20008;-72
2020/12/22 09:22:35;;;;;;;12.52;5.65;;;8.90;99.90;;;;;;6275024;22;19999;-73
2020/12/22 09:25:05;;;;;;;14.23;6.53;;;8.90;99.90;;;;;;6273302;22;20417;-73
2020/12/22 09:27:38;;;;;;;17.38;6.43;;;8.90;99.90;;;;;;6273527;22;20302;-72
2020/12/22 09:30:08;;;;;;;12.65;4.50;;;9.00;99.90;;;;;;6272912;22;20003;-71
2020/12/22 09:32:35;;;;;;;13.63;4.53;;;9.00;99.90;;;;;;6274697;22;20003;-71
2020/12/22 09:35:01;;;;;;;8.43;4.45;;;9.10;99.90;;;;;;6276628;22;19996;-71
2020/12/22 09:37:28;;;;;;;10.85;3.75;;;9.10;99.90;;;;;;6272039;22;19999;-71
2020/12/22 09:39:55;;;;;;;6.82;3.38;;;9.10;99.90;;;;;;6276259;22;20327;-70
2020/12/22 09:42:24;;;;;;;9.23;3.75;;;9.10;99.90;;;;;;6275668;22;19991;-71
2020/12/22 09:44:52;;;;;;;9.35;3.50;;;9.10;99.90;;;;;;6274268;22;20007;-70
2020/12/22 09:47:19;;;;;;;10.07;4.47;;;9.10;99.90;;;;;;6276373;22;20437;-74
2020/12/22 09:49:46;;;;;;;9.13;2.97;;;9.10;99.90;;;;;;6276117;22;19992;-73
2020/12/22 09:52:13;;;;;;;7.68;3.10;;;9.00;99.90;;;;;;6281528;22;20004;-75
2020/12/22 09:54:40;;;;;;;5.65;2.20;;;9.00;99.90;;;;;;6275803;22;20000;-72
2020/12/22 09:57:06;;;;;;;5.60;2.60;;;8.90;99.90;;;;;;6274672;22;19999;-72
2020/12/22 09:59:33;;;;;;;6.13;2.20;;;8.90;99.90;;;;;;6277411;22;20004;-73
2020/12/22 10:02:01;;;;;;;7.43;1.92;;;8.90;99.90;;;;;;6247414;22;20014;-73
2020/12/22 10:04:28;;;;;;;5.35;2.17;;;8.90;99.90;;;;;;6273742;22;20010;-72
2020/12/22 10:06:55;;;;;;;5.03;1.65;;;8.90;99.90;;;;;;6272820;22;20011;-72
2020/12/22 10:09:22;;;;;;;6.95;1.63;;;9.00;99.90;;;;;;6274657;22;20329;-72
2020/12/22 10:11:49;;;;;;;6.03;1.75;;;8.90;99.90;;;;;;6277858;22;20015;-73
2020/12/22 10:14:16;;;;;;;7.93;1.80;;;8.80;99.90;;;;;;6278043;22;20298;-73
2020/12/22 10:16:43;;;;;;;3.80;2.08;;;8.80;99.90;;;;;;6275924;22;19995;-72
2020/12/22 10:19:10;;;;;;;4.82;1.70;;;8.70;99.90;;;;;;6277762;22;20316;-73
2020/12/22 10:21:37;;;;;;;4.15;1.80;;;8.60;99.90;;;;;;6274914;22;20011;-72
2020/12/22 10:24:04;;;;;;;6.18;2.05;;;8.60;99.90;;;;;;6278801;22;19995;-73
2020/12/22 10:26:33;;;;;;;15.55;4.22;;;8.50;99.90;;;;;;6277612;22;19996;-73
2020/12/22 10:29:00;;;;;;;14.48;5.45;;;8.30;99.90;;;;;;6276306;22;20000;-72
2020/12/22 10:31:27;;;;;;;14.32;6.75;;;8.30;99.90;;;;;;6275354;22;20004;-73
2020/12/22 10:33:58;;;;;;;19.15;9.13;;;8.20;99.90;;;;;;6275807;22;19996;-72
2020/12/22 10:36:26;;;;;;;21.17;12.10;;;8.20;99.90;;;;;;6274521;22;20000;-73
2020/12/22 10:38:55;;;;;;;21.23;12.00;;;8.30;99.90;;;;;;6274748;22;20004;-72
2020/12/22 10:41:22;;;;;;;20.10;11.73;;;8.30;99.90;;;;;;6277882;22;20007;-73
2020/12/22 10:43:50;;;;;;;17.38;9.88;;;8.40;99.90;;;;;;6277405;22;19996;-72
2020/12/22 10:46:18;;;;;;;18.05;11.77;;;8.40;99.90;;;;;;6274591;22;20003;-72
2020/12/22 10:48:45;;;;;;;21.75;12.57;;;8.40;99.90;;;;;;6276275;22;19991;-73
2020/12/22 10:51:13;;;;;;;27.55;13.98;;;8.50;99.90;;;;;;6278345;22;20000;-72
2020/12/22 10:53:42;;;;;;;28.13;13.65;;;8.50;99.90;;;;;;6275751;22;20011;-72
2020/12/22 10:56:13;;;;;;;30.15;14.73;;;8.60;99.90;;;;;;6277601;22;20003;-72
2020/12/22 10:58:44;;;;;;;21.95;14.25;;;8.60;99.90;;;;;;6276286;22;20007;-72
2020/12/22 11:01:17;;;;;;;33.15;15.75;;;8.60;99.90;;;;;;6277519;22;20008;-72
2020/12/22 11:03:44;;;;;;;23.98;13.70;;;8.60;99.90;;;;;;6273816;22;20000;-72
2020/12/22 11:08:46;;;;;;;20.15;14.18;;;8.60;99.90;;;;;;6277746;22;20223;-73
2020/12/22 11:11:13;;;;;;;22.85;13.05;;;8.60;99.90;;;;;;6274949;22;20293;-72
2020/12/22 11:13:40;;;;;;;22.30;12.45;;;8.60;99.90;;;;;;6277080;22;20017;-72
2020/12/22 11:16:07;;;;;;;27.02;14.27;;;8.60;99.90;;;;;;6274924;22;20345;-73
2020/12/22 11:18:35;;;;;;;14.60;11.27;;;8.70;99.90;;;;;;6275867;22;20000;-76
2020/12/22 11:21:08;;;;;;;16.90;11.93;;;8.70;99.90;;;;;;6281888;22;20020;-72
2020/12/22 11:23:34;;;;;;;15.82;11.38;;;8.70;99.90;;;;;;6275535;22;19999;-73
2020/12/22 11:26:01;;;;;;;30.05;11.27;;;8.80;99.90;;;;;;6278117;22;20000;-73
2020/12/22 11:28:28;;;;;;;22.38;13.82;;;8.80;99.90;;;;;;6277117;22;20002;-73
2020/12/22 11:30:55;;;;;;;17.58;11.77;;;8.60;99.90;;;;;;6276318;22;19996;-73
2020/12/22 11:33:22;;;;;;;22.05;11.23;;;8.70;99.90;;;;;;6274668;22;20003;-74
2020/12/22 11:35:49;;;;;;;20.65;11.57;;;8.80;99.90;;;;;;6275792;22;20003;-72
2020/12/22 11:38:16;;;;;;;18.13;11.13;;;8.80;99.90;;;;;;6274704;22;20299;-73
2020/12/22 11:40:57;;;;;;;16.95;10.55;;;8.80;99.90;;;;;;6276904;22;20008;-73
2020/12/22 11:43:24;;;;;;;19.08;9.63;;;8.80;99.90;;;;;;6275101;22;20000;-71
2020/12/22 11:45:51;;;;;;;18.33;8.90;;;8.80;99.90;;;;;;6276924;22;20007;-71
2020/12/22 11:48:18;;;;;;;11.90;7.55;;;8.80;99.90;;;;;;6247382;22;20018;-72
2020/12/22 11:50:45;;;;;;;13.32;7.65;;;8.80;99.90;;;;;;6276031;22;20006;-72
2020/12/22 11:53:11;;;;;;;19.08;8.85;;;8.80;99.90;;;;;;6275387;22;19996;-72
2020/12/22 11:55:38;;;;;;;17.27;7.40;;;8.70;99.90;;;;;;6276248;22;20011;-72
2020/12/22 11:58:05;;;;;;;12.40;6.90;;;8.70;99.90;;;;;;6278016;22;20007;-74
2020/12/22 12:00:32;;;;;;;10.98;7.50;;;8.70;99.90;;;;;;6274905;22;20014;-72
2020/12/22 12:02:59;;;;;;;18.05;8.82;;;8.70;99.90;;;;;;6277138;22;20011;-72
2020/12/22 12:05:26;;;;;;;10.85;7.03;;;8.60;99.90;;;;;;6276013;22;20006;-71
2020/12/22 12:07:53;;;;;;;12.63;7.40;;;8.70;99.90;;;;;;6276289;22;20003;-71
2020/12/22 12:10:20;;;;;;;11.95;7.60;;;8.70;99.90;;;;;;6275462;22;19996;-71
2020/12/22 12:12:46;;;;;;;13.50;8.40;;;8.60;99.90;;;;;;6277423;22;19999;-70
2020/12/22 12:15:13;;;;;;;18.08;7.30;;;8.70;99.90;;;;;;6277872;22;20015;-70
2020/12/22 12:17:40;;;;;;;18.67;7.78;;;8.70;99.90;;;;;;6277174;22;19995;-72
2020/12/22 12:20:07;;;;;;;9.45;5.53;;;8.70;99.90;;;;;;6275498;22;20316;-72
2020/12/22 12:22:34;;;;;;;8.38;5.28;;;8.70;99.90;;;;;;6275677;22;19999;-72
2020/12/22 12:25:02;;;;;;;11.07;6.07;;;8.80;99.90;;;;;;6277476;22;20289;-73
2020/12/22 12:27:29;;;;;;;10.77;5.60;;;8.60;99.90;;;;;;6277053;22;19995;-74
2020/12/22 12:29:56;;;;;;;9.15;5.22;;;8.60;99.90;;;;;;6273771;22;20000;-74
2020/12/22 12:32:29;;;;;;;12.00;5.60;;;8.50;99.90;;;;;;6276549;22;20007;-73
2020/12/22 12:34:57;;;;;;;19.70;5.88;;;8.40;99.90;;;;;;6275842;22;20003;-73
2020/12/22 12:37:24;;;;;;;9.20;4.97;;;8.20;99.90;;;;;;6277891;22;20504;-74
2020/12/22 12:39:52;;;;;;;8.10;4.90;;;8.20;99.90;;;;;;6275083;22;20019;-74
2020/12/22 12:42:19;;;;;;;10.10;5.63;;;8.10;99.90;;;;;;6276455;22;20366;-73
2020/12/22 12:44:45;;;;;;;12.10;5.30;;;8.00;99.90;;;;;;6276215;22;20335;-73
2020/12/22 12:47:12;;;;;;;7.05;3.58;;;8.00;99.90;;;;;;6281666;22;19999;-73
2020/12/22 12:49:41;;;;;;;11.40;3.97;;;8.10;99.90;;;;;;6275541;22;20006;-72
2020/12/22 12:52:09;;;;;;;7.50;3.17;;;8.20;99.90;;;;;;6277141;22;20320;-73
2020/12/22 12:54:36;;;;;;;6.07;3.42;;;8.20;99.90;;;;;;6249561;22;20313;-73
2020/12/22 12:57:03;;;;;;;7.93;2.60;;;8.30;99.90;;;;;;6275817;22;20296;-73